createdAt,value
2017-09-05T00:00:24.731Z,99.90
2017-09-05T00:02:53.005Z,99.90
2017-09-05T00:05:21.287Z,99.90
2017-09-05T00:08:04.428Z,99.90
2017-09-05T00:10:49.506Z,99.90
2017-09-05T00:13:32.656Z,99.90
2017-09-05T00:16:04.543Z,99.90
2017-09-05T00:18:49.623Z,99.90
2017-09-05T00:21:17.914Z,99.90
2017-09-05T00:23:46.198Z,99.90
2017-09-05T00:26:14.487Z,99.90
2017-09-05T00:28:42.743Z,99.90
2017-09-05T00:31:11.040Z,99.90
2017-09-05T00:33:39.296Z,99.90
2017-09-05T00:36:07.546Z,99.90
2017-09-05T00:38:35.841Z,99.90
2017-09-05T00:41:04.104Z,99.90
2017-09-05T00:43:32.404Z,99.90
2017-09-05T00:46:00.659Z,99.90
2017-09-05T00:48:28.916Z,99.90
2017-09-05T00:50:57.203Z,99.90
2017-09-05T00:53:25.459Z,99.90
2017-09-05T00:55:53.743Z,99.90
2017-09-05T00:58:22.003Z,99.90
2017-09-05T01:00:50.290Z,99.90
2017-09-05T01:03:18.552Z,99.90
2017-09-05T01:05:46.833Z,99.90
2017-09-05T01:08:15.122Z,99.90
2017-09-05T01:10:43.378Z,99.90
2017-09-05T01:13:11.655Z,99.90
2017-09-05T01:15:39.947Z,99.90
2017-09-05T01:18:08.241Z,99.90
2017-09-05T01:20:36.545Z,99.90
2017-09-05T01:23:04.804Z,99.90
2017-09-05T01:25:33.070Z,99.90
2017-09-05T01:28:01.373Z,99.90
2017-09-05T01:30:29.638Z,99.90
2017-09-05T01:32:57.924Z,99.90
2017-09-05T01:35:26.227Z,99.90
2017-09-05T01:37:54.491Z,99.90
2017-09-05T01:40:22.757Z,99.90
2017-09-05T01:42:51.057Z,99.90
2017-09-05T01:45:19.308Z,99.90
2017-09-05T01:47:47.576Z,99.90
2017-09-05T01:50:15.852Z,99.90
2017-09-05T01:52:44.131Z,99.90
2017-09-05T01:55:12.403Z,99.90
2017-09-05T01:57:40.684Z,99.90
2017-09-05T02:00:08.949Z,99.90
2017-09-05T02:02:37.231Z,99.90
2017-09-05T02:05:05.498Z,99.90
2017-09-05T02:07:33.794Z,99.90
2017-09-05T02:10:02.069Z,99.90
2017-09-05T02:12:30.356Z,99.90
2017-09-05T02:14:58.667Z,99.90
2017-09-05T02:17:26.932Z,99.90
2017-09-05T02:19:55.201Z,99.90
2017-09-05T02:22:23.488Z,99.90
2017-09-05T02:24:51.754Z,99.90
2017-09-05T02:27:20.041Z,99.90
2017-09-05T02:29:48.300Z,99.90
2017-09-05T02:32:16.592Z,99.90
2017-09-05T02:34:44.856Z,99.90
2017-09-05T02:37:13.121Z,99.90
2017-09-05T02:39:41.432Z,99.90
2017-09-05T02:42:09.692Z,99.90
2017-09-05T02:44:37.962Z,99.90
2017-09-05T02:47:06.256Z,99.90
2017-09-05T02:49:34.515Z,99.90
2017-09-05T02:52:02.820Z,99.90
2017-09-05T02:54:31.080Z,99.90
2017-09-05T02:56:59.344Z,99.90
2017-09-05T02:59:27.632Z,99.90
2017-09-05T03:01:56.177Z,99.90
2017-09-05T03:04:24.471Z,99.90
2017-09-05T03:06:52.749Z,99.90
2017-09-05T03:09:21.037Z,99.90
2017-09-05T03:11:49.305Z,99.90
2017-09-05T03:14:17.594Z,99.90
2017-09-05T03:16:45.900Z,99.90
2017-09-05T03:19:14.160Z,99.90
2017-09-05T03:21:42.415Z,99.90
2017-09-05T03:24:10.705Z,99.90
2017-09-05T03:26:38.997Z,99.90
2017-09-05T03:29:06.499Z,99.90
2017-09-05T03:31:34.794Z,99.90
2017-09-05T03:34:03.104Z,99.90
2017-09-05T03:36:31.365Z,99.90
2017-09-05T03:38:59.627Z,99.90
2017-09-05T03:41:27.919Z,99.90
2017-09-05T03:43:56.171Z,99.90
2017-09-05T03:46:24.455Z,99.90
2017-09-05T03:48:52.723Z,99.90
2017-09-05T03:51:21.015Z,99.90
2017-09-05T03:53:49.277Z,99.90
2017-09-05T03:56:17.580Z,99.90
2017-09-05T03:58:45.832Z,99.90
2017-09-05T04:01:14.093Z,99.90
2017-09-05T04:03:42.432Z,99.90
2017-09-05T04:06:10.700Z,99.90
2017-09-05T04:08:38.972Z,99.90
2017-09-05T04:11:07.259Z,99.90
2017-09-05T04:13:35.553Z,99.90
2017-09-05T04:16:03.048Z,99.90
2017-09-05T04:18:31.340Z,99.90
2017-09-05T04:20:59.608Z,99.90
2017-09-05T04:23:27.901Z,99.90
2017-09-05T04:25:56.201Z,99.90
2017-09-05T04:28:24.460Z,99.90
2017-09-05T04:30:52.760Z,99.90
2017-09-05T04:33:21.033Z,99.90
2017-09-05T04:35:49.341Z,99.90
2017-09-05T04:38:17.618Z,99.90
2017-09-05T04:40:45.897Z,99.90
2017-09-05T04:43:14.199Z,99.90
2017-09-05T04:45:42.481Z,99.90
2017-09-05T04:48:10.745Z,99.90
2017-09-05T04:50:39.041Z,99.90
2017-09-05T04:53:07.310Z,99.90
2017-09-05T04:55:35.617Z,99.90
2017-09-05T04:58:03.883Z,99.90
2017-09-05T05:00:32.171Z,99.90
2017-09-05T05:03:00.444Z,99.90
2017-09-05T05:05:28.732Z,99.90
2017-09-05T05:07:57.034Z,99.90
2017-09-05T05:10:25.349Z,99.90
2017-09-05T05:12:53.618Z,99.90
2017-09-05T05:15:21.897Z,99.90
2017-09-05T05:17:50.216Z,99.90
2017-09-05T05:20:18.476Z,99.90
2017-09-05T05:22:46.742Z,99.90
2017-09-05T05:25:15.046Z,99.90
2017-09-05T05:27:43.317Z,99.90
2017-09-05T05:30:11.617Z,99.90
2017-09-05T05:32:39.880Z,99.90
2017-09-05T05:35:08.146Z,99.90
2017-09-05T05:37:36.448Z,99.90
2017-09-05T05:40:04.783Z,99.90
2017-09-05T05:42:33.059Z,99.90
2017-09-05T05:45:01.328Z,99.90
2017-09-05T05:47:29.623Z,99.90
2017-09-05T05:49:57.156Z,99.90
2017-09-05T05:52:25.428Z,99.90
2017-09-05T05:54:53.727Z,99.90
2017-09-05T05:57:22.037Z,99.90
2017-09-05T05:59:50.299Z,99.90
2017-09-05T06:02:18.616Z,99.90
2017-09-05T06:04:46.933Z,99.90
2017-09-05T06:07:15.205Z,99.90
2017-09-05T06:09:43.502Z,99.90
2017-09-05T06:12:11.773Z,99.90
2017-09-05T06:14:40.057Z,99.90
2017-09-05T06:17:08.373Z,99.90
2017-09-05T06:19:36.644Z,99.90
2017-09-05T06:22:04.964Z,99.90
2017-09-05T06:24:33.235Z,99.90
2017-09-05T06:27:01.512Z,99.90
2017-09-05T06:29:29.802Z,99.90
2017-09-05T06:31:58.075Z,99.90
2017-09-05T06:34:26.404Z,99.90
2017-09-05T06:36:54.671Z,99.90
2017-09-05T06:39:22.932Z,99.90
2017-09-05T06:41:51.243Z,99.90
2017-09-05T06:44:19.518Z,99.90
2017-09-05T06:46:47.780Z,99.90
2017-09-05T06:49:16.084Z,99.90
2017-09-05T06:51:44.369Z,99.90
2017-09-05T06:54:12.637Z,99.90
2017-09-05T06:56:40.957Z,99.90
2017-09-05T06:59:09.261Z,99.90
2017-09-05T07:01:37.529Z,99.90
2017-09-05T07:04:05.824Z,99.90
2017-09-05T07:06:34.099Z,99.90
2017-09-05T07:09:02.396Z,99.90
2017-09-05T07:11:30.688Z,99.90
2017-09-05T07:13:59.003Z,99.90
2017-09-05T07:16:27.301Z,99.90
2017-09-05T07:18:56.511Z,99.90
2017-09-05T07:21:24.821Z,99.90
2017-09-05T07:23:53.091Z,99.90
2017-09-05T07:26:21.401Z,99.90
2017-09-05T07:28:49.664Z,99.90
2017-09-05T07:31:18.083Z,99.90
2017-09-05T07:33:46.358Z,99.90
2017-09-05T07:36:14.632Z,99.90
2017-09-05T07:38:42.956Z,99.90
2017-09-05T07:41:11.238Z,99.90
2017-09-05T07:43:39.506Z,99.90
2017-09-05T07:46:07.808Z,99.90
2017-09-05T07:48:36.238Z,99.90
2017-09-05T07:51:04.503Z,99.90
2017-09-05T07:53:32.773Z,99.90
2017-09-05T07:56:01.063Z,99.90
2017-09-05T07:58:29.366Z,99.90
2017-09-05T08:00:57.629Z,99.90
2017-09-05T08:03:25.934Z,99.90
2017-09-05T08:05:54.229Z,99.90
2017-09-05T08:08:22.489Z,99.90
2017-09-05T08:10:50.787Z,99.90
2017-09-05T08:13:19.065Z,99.90
2017-09-05T08:15:47.389Z,99.90
2017-09-05T08:18:15.660Z,99.90
2017-09-05T08:20:43.920Z,99.90
2017-09-05T08:23:12.225Z,99.90
2017-09-05T08:25:40.486Z,99.90
2017-09-05T08:28:08.788Z,99.90
2017-09-05T08:30:37.082Z,99.90
2017-09-05T08:33:05.344Z,99.90
2017-09-05T08:35:33.818Z,99.90
2017-09-05T08:38:02.075Z,99.90
2017-09-05T08:40:30.336Z,99.90
2017-09-05T08:42:58.626Z,99.90
2017-09-05T08:45:26.124Z,99.90
2017-09-05T08:47:54.532Z,99.80
2017-09-05T08:50:22.788Z,99.80
2017-09-05T08:52:51.061Z,99.10
2017-09-05T08:55:19.363Z,98.60
2017-09-05T08:57:47.634Z,98.40
2017-09-05T09:00:15.896Z,98.50
2017-09-05T09:02:44.177Z,98.80
2017-09-05T09:05:12.443Z,98.60
2017-09-05T09:07:40.753Z,99.30
2017-09-05T09:10:09.019Z,98.70
2017-09-05T09:12:37.287Z,98.30
2017-09-05T09:15:05.581Z,98.30
2017-09-05T09:17:33.850Z,98.40
2017-09-05T09:20:02.147Z,98.20
2017-09-05T09:22:30.418Z,98.90
2017-09-05T09:24:58.724Z,99.20
2017-09-05T09:27:26.993Z,98.80
2017-09-05T09:29:55.443Z,97.80
2017-09-05T09:32:23.713Z,97.80
2017-09-05T09:34:52.011Z,98.00
2017-09-05T09:37:20.320Z,98.40
2017-09-05T09:39:48.586Z,98.10
2017-09-05T09:42:16.856Z,97.00
2017-09-05T09:44:45.161Z,97.20
2017-09-05T09:47:14.412Z,98.30
2017-09-05T09:49:42.830Z,99.00
2017-09-05T09:52:11.098Z,98.30
2017-09-05T09:54:39.364Z,97.70
2017-09-05T09:57:07.801Z,97.50
2017-09-05T09:59:36.073Z,98.00
2017-09-05T10:02:04.489Z,97.90
2017-09-05T10:04:32.779Z,97.30
2017-09-05T10:07:01.053Z,97.30
2017-09-05T10:09:29.327Z,97.30
2017-09-05T10:11:58.405Z,95.70
2017-09-05T10:14:26.670Z,96.30
2017-09-05T10:16:54.976Z,97.80
2017-09-05T10:19:23.377Z,95.80
2017-09-05T10:21:51.640Z,95.90
2017-09-05T10:24:19.940Z,96.70
2017-09-05T10:26:48.217Z,95.80
2017-09-05T10:29:16.509Z,96.50
2017-09-05T10:31:44.782Z,95.70
2017-09-05T10:34:13.091Z,95.80
2017-09-05T10:36:41.361Z,96.20
2017-09-05T10:39:09.763Z,95.50
2017-09-05T10:41:38.160Z,96.30
2017-09-05T10:44:06.421Z,94.80
2017-09-05T10:46:34.728Z,95.00
2017-09-05T10:49:03.003Z,95.00
2017-09-05T10:51:31.274Z,95.40
2017-09-05T10:53:59.589Z,95.00
2017-09-05T10:56:27.860Z,95.50
2017-09-05T10:58:56.122Z,95.10
2017-09-05T11:01:24.420Z,94.90
2017-09-05T11:03:52.684Z,95.80
2017-09-05T11:06:20.969Z,95.90
2017-09-05T11:08:49.236Z,95.70
2017-09-05T11:11:17.509Z,96.20
2017-09-05T11:13:45.902Z,96.20
2017-09-05T11:16:14.181Z,95.70
2017-09-05T11:18:42.492Z,96.70
2017-09-05T11:21:10.773Z,95.50
2017-09-05T11:23:39.037Z,96.10
2017-09-05T11:26:07.340Z,95.10
2017-09-05T11:28:35.620Z,95.80
2017-09-05T11:31:03.888Z,95.30
2017-09-05T11:33:32.358Z,95.00
2017-09-05T11:36:00.622Z,95.20
2017-09-05T11:38:28.890Z,94.90
2017-09-05T11:40:57.200Z,94.80
2017-09-05T11:43:25.494Z,94.70
2017-09-05T11:45:53.797Z,95.20
2017-09-05T11:48:22.070Z,95.00
2017-09-05T11:50:50.568Z,94.40
2017-09-05T11:53:18.839Z,94.60
2017-09-05T11:55:47.106Z,94.80
2017-09-05T11:58:15.402Z,94.40
2017-09-05T12:00:43.668Z,94.90
2017-09-05T12:03:12.095Z,95.40
2017-09-05T12:05:40.360Z,95.00
2017-09-05T12:08:08.655Z,95.10
2017-09-05T12:10:36.928Z,94.90
2017-09-05T12:13:05.198Z,95.40
2017-09-05T12:15:33.480Z,95.00
2017-09-05T12:18:01.742Z,94.50
2017-09-05T12:20:30.089Z,94.40
2017-09-05T12:22:58.369Z,94.90
2017-09-05T12:25:26.637Z,94.70
2017-09-05T12:27:54.927Z,95.30
2017-09-05T12:30:23.192Z,94.50
2017-09-05T12:32:51.482Z,94.00
2017-09-05T12:35:19.744Z,93.70
2017-09-05T12:37:48.277Z,93.80
2017-09-05T12:40:16.540Z,93.40
2017-09-05T12:42:44.816Z,94.10
2017-09-05T12:45:13.118Z,94.20
2017-09-05T12:47:41.791Z,93.70
2017-09-05T12:50:10.160Z,94.20
2017-09-05T12:52:38.443Z,94.20
2017-09-05T12:55:06.863Z,94.60
2017-09-05T12:57:35.129Z,94.40
2017-09-05T13:00:03.401Z,94.60
2017-09-05T13:02:31.716Z,94.80
2017-09-05T13:04:59.990Z,93.90
2017-09-05T13:07:28.293Z,93.80
2017-09-05T13:09:56.560Z,94.10
2017-09-05T13:12:24.875Z,94.50
2017-09-05T13:14:53.150Z,93.90
2017-09-05T13:17:21.430Z,94.10
2017-09-05T13:19:49.736Z,94.40
2017-09-05T13:22:18.005Z,94.40
2017-09-05T13:24:46.321Z,94.30
2017-09-05T13:27:14.596Z,93.70
2017-09-05T13:29:42.866Z,93.60
2017-09-05T13:32:11.158Z,93.50
2017-09-05T13:34:39.428Z,93.20
2017-09-05T13:37:07.741Z,93.80
2017-09-05T13:39:36.010Z,93.70
2017-09-05T13:42:04.285Z,93.20
2017-09-05T13:44:32.583Z,93.20
2017-09-05T13:47:00.860Z,93.80
2017-09-05T13:49:29.166Z,93.60
2017-09-05T13:51:57.471Z,93.90
2017-09-05T13:54:25.773Z,94.00
2017-09-05T13:56:54.106Z,93.80
2017-09-05T13:59:22.378Z,93.50
2017-09-05T14:01:50.652Z,93.10
2017-09-05T14:04:18.974Z,93.20
2017-09-05T14:06:47.242Z,93.60
2017-09-05T14:09:15.523Z,92.90
2017-09-05T14:11:43.827Z,93.40
2017-09-05T14:14:12.089Z,93.00
2017-09-05T14:16:40.384Z,94.00
2017-09-05T14:19:08.689Z,94.80
2017-09-05T14:21:36.949Z,94.90
2017-09-05T14:24:05.248Z,94.40
2017-09-05T14:26:33.517Z,94.70
2017-09-05T14:29:01.828Z,93.40
2017-09-05T14:31:30.097Z,93.70
2017-09-05T14:33:58.441Z,94.10
2017-09-05T14:36:26.714Z,92.90
2017-09-05T14:38:54.987Z,92.80
2017-09-05T14:41:23.398Z,92.50
2017-09-05T14:43:51.680Z,92.60
2017-09-05T14:46:19.955Z,92.40
2017-09-05T14:48:48.243Z,91.80
2017-09-05T14:51:16.536Z,92.40
2017-09-05T14:53:44.862Z,92.60
2017-09-05T14:56:13.130Z,90.90
2017-09-05T14:58:41.401Z,90.50
2017-09-05T15:01:09.707Z,90.40
2017-09-05T15:03:38.013Z,91.50
2017-09-05T15:06:06.288Z,90.40
2017-09-05T15:08:34.609Z,90.30
2017-09-05T15:11:02.896Z,90.60
2017-09-05T15:13:31.175Z,90.50
2017-09-05T15:15:59.476Z,91.30
2017-09-05T15:18:27.745Z,91.70
2017-09-05T15:20:56.071Z,91.40
2017-09-05T15:23:24.336Z,91.00
2017-09-05T15:25:52.619Z,91.40
2017-09-05T15:28:20.964Z,91.40
2017-09-05T15:30:49.225Z,91.80
2017-09-05T15:33:17.496Z,91.60
2017-09-05T15:35:45.805Z,91.90
2017-09-05T15:38:14.073Z,92.00
2017-09-05T15:40:42.379Z,91.90
2017-09-05T15:43:10.650Z,92.70
2017-09-05T15:45:38.954Z,92.20
2017-09-05T15:48:07.218Z,91.70
2017-09-05T15:50:35.508Z,92.00
2017-09-05T15:53:03.796Z,92.10
2017-09-05T15:55:32.090Z,92.60
2017-09-05T15:58:00.430Z,93.50
2017-09-05T16:00:28.734Z,94.20
2017-09-05T16:02:57.005Z,94.70
2017-09-05T16:05:25.351Z,94.30
2017-09-05T16:07:53.621Z,94.80
2017-09-05T16:10:21.894Z,95.00
2017-09-05T16:12:50.259Z,95.20
2017-09-05T16:15:18.585Z,95.30
2017-09-05T16:17:46.974Z,95.80
2017-09-05T16:20:15.241Z,96.50
2017-09-05T16:22:43.542Z,96.70
2017-09-05T16:25:11.115Z,96.70
2017-09-05T16:27:38.620Z,96.80
2017-09-05T16:30:06.980Z,97.50
2017-09-05T16:32:35.327Z,97.30
2017-09-05T16:35:03.602Z,97.10
2017-09-05T16:37:32.860Z,97.30
2017-09-05T16:40:01.133Z,97.50
2017-09-05T16:42:29.467Z,97.60
2017-09-05T16:44:57.001Z,97.50
2017-09-05T16:47:25.334Z,97.50
2017-09-05T16:49:53.629Z,98.10
2017-09-05T16:52:21.897Z,98.00
2017-09-05T16:54:50.247Z,98.00
2017-09-05T16:57:18.571Z,98.30
2017-09-05T16:59:46.939Z,98.50
2017-09-05T17:02:15.310Z,98.70
2017-09-05T17:04:43.640Z,99.30
2017-09-05T17:07:12.101Z,98.90
2017-09-05T17:09:40.503Z,98.80
2017-09-05T17:12:08.834Z,98.70
2017-09-05T17:14:37.181Z,99.20
2017-09-05T17:17:05.546Z,99.40
2017-09-05T17:19:33.837Z,99.20
2017-09-05T17:22:02.197Z,98.60
2017-09-05T17:24:30.692Z,99.00
2017-09-05T17:26:58.292Z,98.80
2017-09-05T17:29:26.656Z,99.50
2017-09-05T17:31:55.018Z,99.80
2017-09-05T17:34:23.350Z,99.80
2017-09-05T17:36:51.837Z,99.90
2017-09-05T17:39:20.250Z,99.90
2017-09-05T17:41:48.708Z,99.90
2017-09-05T17:44:17.076Z,99.90
2017-09-05T17:46:45.345Z,99.90
2017-09-05T17:49:13.799Z,99.90
2017-09-05T17:51:42.289Z,99.90
2017-09-05T17:54:10.757Z,99.90
2017-09-05T17:56:39.225Z,99.90
2017-09-05T17:59:07.838Z,99.90
2017-09-05T18:01:36.301Z,99.90
2017-09-05T18:04:04.636Z,99.90
2017-09-05T18:06:33.085Z,99.90
2017-09-05T18:09:01.575Z,99.90
2017-09-05T18:11:30.078Z,99.90
2017-09-05T18:13:58.421Z,99.90
2017-09-05T18:16:26.115Z,99.90
2017-09-05T18:18:55.541Z,99.90
2017-09-05T18:21:24.006Z,99.90
2017-09-05T18:23:52.505Z,99.90
2017-09-05T18:26:20.842Z,99.90
2017-09-05T18:28:50.157Z,99.90
2017-09-05T18:31:18.676Z,99.90
2017-09-05T18:33:47.011Z,99.90
2017-09-05T18:36:15.355Z,99.90
2017-09-05T18:38:43.713Z,99.90
2017-09-05T18:41:12.090Z,99.90
2017-09-05T18:43:40.449Z,99.90
2017-09-05T18:46:08.053Z,99.90
2017-09-05T18:48:36.515Z,99.90
2017-09-05T18:51:04.879Z,99.90
2017-09-05T18:53:33.365Z,99.90
2017-09-05T18:56:01.833Z,99.90
2017-09-05T18:58:30.223Z,99.90
2017-09-05T19:00:58.492Z,99.90
2017-09-05T19:03:26.857Z,99.90
2017-09-05T19:05:55.195Z,99.90
2017-09-05T19:08:23.566Z,99.90
2017-09-05T19:10:52.015Z,99.90
2017-09-05T19:13:20.516Z,99.90
2017-09-05T19:15:48.978Z,99.90
2017-09-05T19:18:17.441Z,99.90
2017-09-05T19:20:45.943Z,99.90
2017-09-05T19:23:14.410Z,99.90
2017-09-05T19:25:42.907Z,99.90
2017-09-05T19:28:11.260Z,99.90
2017-09-05T19:30:39.589Z,99.90
2017-09-05T19:33:07.966Z,99.90
2017-09-05T19:35:37.278Z,99.90
2017-09-05T19:38:05.776Z,99.90
2017-09-05T19:40:34.248Z,99.90
2017-09-05T19:43:02.750Z,99.90
2017-09-05T19:45:31.208Z,99.90
2017-09-05T19:47:59.676Z,99.90
2017-09-05T19:50:28.159Z,99.90
2017-09-05T19:52:56.611Z,99.90
2017-09-05T19:55:24.990Z,99.90
2017-09-05T19:57:53.327Z,99.90
2017-09-05T20:00:21.783Z,99.90
2017-09-05T20:02:50.297Z,99.90
2017-09-05T20:05:18.772Z,99.90
2017-09-05T20:07:47.144Z,99.90
2017-09-05T20:10:15.419Z,99.90
2017-09-05T20:12:43.755Z,99.90
2017-09-05T20:15:12.244Z,99.90
2017-09-05T20:17:40.617Z,99.90
2017-09-05T20:20:08.944Z,99.90
2017-09-05T20:22:37.318Z,99.90
2017-09-05T20:25:04.905Z,99.90
2017-09-05T20:27:32.470Z,99.90
2017-09-05T20:30:00.887Z,99.90
2017-09-05T20:32:29.225Z,99.90
2017-09-05T20:34:57.552Z,99.90
2017-09-05T20:37:25.917Z,99.90
2017-09-05T20:39:54.184Z,99.90
2017-09-05T20:42:22.557Z,99.90
2017-09-05T20:44:51.045Z,99.90
2017-09-05T20:47:19.330Z,99.90
2017-09-05T20:49:47.641Z,99.90
2017-09-05T20:52:16.840Z,99.90
2017-09-05T20:54:45.110Z,99.90
2017-09-05T20:57:13.417Z,99.90
2017-09-05T20:59:41.738Z,99.90
2017-09-05T21:02:10.015Z,99.90
2017-09-05T21:04:38.344Z,99.90
2017-09-05T21:07:06.652Z,99.90
2017-09-05T21:09:34.989Z,99.90
2017-09-05T21:12:03.260Z,99.90
2017-09-05T21:14:31.548Z,99.90
2017-09-05T21:16:59.914Z,99.90
2017-09-05T21:19:28.285Z,99.50
2017-09-05T21:21:56.816Z,99.30
2017-09-05T21:24:25.087Z,99.10
2017-09-05T21:26:53.428Z,99.10
2017-09-05T21:29:21.783Z,99.00
2017-09-05T21:31:50.120Z,98.90
2017-09-05T21:34:18.389Z,99.00
2017-09-05T21:36:46.701Z,99.20
2017-09-05T21:39:14.965Z,99.00
2017-09-05T21:41:43.307Z,99.90
2017-09-05T21:44:11.661Z,99.90
2017-09-05T21:46:39.930Z,99.90
2017-09-05T21:49:08.227Z,99.90
2017-09-05T21:51:36.492Z,99.90
2017-09-05T21:54:04.792Z,99.90
2017-09-05T21:56:33.092Z,99.90
2017-09-05T21:59:01.392Z,99.90
2017-09-05T22:01:29.660Z,99.90
2017-09-05T22:03:57.941Z,99.90
2017-09-05T22:06:26.274Z,99.90
2017-09-05T22:08:54.578Z,99.90
2017-09-05T22:11:22.878Z,99.90
2017-09-05T22:13:56.738Z,99.90
2017-09-05T22:16:30.767Z,99.90
2017-09-05T22:19:04.012Z,99.90
2017-09-05T22:21:34.235Z,99.90
2017-09-05T22:24:02.560Z,99.90
2017-09-05T22:26:36.489Z,99.90
2017-09-05T22:29:09.894Z,99.90
2017-09-05T22:31:38.193Z,99.90
2017-09-05T22:34:06.484Z,99.90
2017-09-05T22:36:34.760Z,99.90
2017-09-05T22:39:03.047Z,99.90
2017-09-05T22:41:31.307Z,99.90
2017-09-05T22:43:59.624Z,99.90
2017-09-05T22:46:27.902Z,99.90
2017-09-05T22:48:57.136Z,99.90
2017-09-05T22:51:25.403Z,99.90
2017-09-05T22:53:53.707Z,99.90
2017-09-05T22:56:21.973Z,99.90
2017-09-05T22:58:50.266Z,99.90
2017-09-05T23:01:18.571Z,99.90
2017-09-05T23:03:46.848Z,99.90
2017-09-05T23:06:15.167Z,99.90
2017-09-05T23:08:43.438Z,99.90
2017-09-05T23:11:11.708Z,99.90
2017-09-05T23:13:40.018Z,99.90
2017-09-05T23:16:08.302Z,99.90
2017-09-05T23:18:36.611Z,99.90
2017-09-05T23:21:04.882Z,99.90
2017-09-05T23:23:33.144Z,99.90
2017-09-05T23:26:01.448Z,99.90
2017-09-05T23:28:29.747Z,99.90
2017-09-05T23:30:58.018Z,99.90
2017-09-05T23:33:26.341Z,99.90
2017-09-05T23:35:54.644Z,99.90
2017-09-05T23:38:22.907Z,99.90
2017-09-05T23:40:51.184Z,99.90
2017-09-05T23:43:19.479Z,99.90
2017-09-05T23:45:47.751Z,99.90
2017-09-05T23:48:16.062Z,99.90
2017-09-05T23:50:44.326Z,99.90
2017-09-05T23:53:12.584Z,99.90
2017-09-05T23:55:40.864Z,99.90
2017-09-05T23:58:09.130Z,99.90
